Time;durP1;ratioP1;P1;durP2;ratioP2;P2;SDS_P1;SDS_P2;PMS_P1;PMS_P2;Temp;Humidity;BMP_temperature;BMP_pressure;BME280_temperature;BME280_humidity;BME280_pressure;Samples;Min_cycle;Max_cycle;Signal;HPM_P1;HPM_P2
2021/08/09 00:00:32;;;;;;;4.80;2.00;;;;;;;14.48;96.88;100831.28;5033500;28;20533;-68
2021/08/09 00:03:00;;;;;;;6.60;2.28;;;;;;;14.41;99.11;100834.38;5035990;28;20056;-67
2021/08/09 00:05:27;;;;;;;5.85;1.95;;;;;;;14.54;97.67;100841.47;4999455;28;20053;-69
2021/08/09 00:07:54;;;;;;;2.88;2.13;;;;;;;14.41;97.15;100834.38;5006698;28;20100;-67
2021/08/09 00:10:21;;;;;;;4.40;2.25;;;;;;;14.47;96.25;100835.75;5028762;28;20049;-67
2021/08/09 00:12:49;;;;;;;4.20;1.90;;;;;;;14.57;95.75;100842.09;5013371;28;20041;-68
2021/08/09 00:15:17;;;;;;;7.18;2.50;;;;;;;14.56;95.28;100851.00;4980222;28;20070;-69
2021/08/09 00:17:44;;;;;;;6.13;1.90;;;;;;;14.50;94.99;100851.47;5007290;28;20153;-69
2021/08/09 00:20:12;;;;;;;5.50;2.10;;;;;;;14.42;96.39;100856.41;5037533;28;20132;-67
2021/08/09 00:22:39;;;;;;;3.20;1.85;;;;;;;14.23;96.25;100848.94;5012773;28;20045;-69
2021/08/09 00:25:07;;;;;;;7.55;2.05;;;;;;;14.17;96.48;100850.19;5029204;28;20052;-69
2021/08/09 00:27:34;;;;;;;2.58;1.83;;;;;;;14.44;95.21;100846.53;4979275;28;20071;-69
2021/08/09 00:30:01;;;;;;;4.35;1.85;;;;;;;14.39;95.18;100846.03;5039134;28;20147;-69
2021/08/09 00:32:29;;;;;;;5.38;2.05;;;;;;;14.39;94.90;100844.22;5035452;28;20141;-69
2021/08/09 00:34:56;;;;;;;5.13;2.38;;;;;;;14.22;95.11;100864.91;5004488;28;20136;-68
2021/08/09 00:37:23;;;;;;;4.43;1.73;;;;;;;14.41;95.21;100871.47;5006347;28;20065;-70
2021/08/09 00:39:50;;;;;;;2.55;1.70;;;;;;;14.40;94.72;100859.16;5017125;28;20043;-68
2021/08/09 00:42:17;;;;;;;4.30;1.67;;;;;;;14.48;91.86;100845.41;5006450;28;20133;-68
2021/08/09 00:44:45;;;;;;;4.13;1.55;;;;;;;14.44;91.79;100846.53;5005838;28;20048;-68
2021/08/09 00:47:12;;;;;;;7.82;2.10;;;;;;;14.41;92.95;100846.78;5027559;28;20131;-68
2021/08/09 00:49:39;;;;;;;4.07;2.10;;;;;;;14.34;93.02;100853.47;5040928;28;20057;-70
2021/08/09 00:52:07;;;;;;;3.65;1.70;;;;;;;14.30;93.52;100849.34;5027490;28;20046;-69
2021/08/09 00:54:34;;;;;;;2.95;1.50;;;;;;;14.32;93.94;100850.06;5009336;28;20076;-68
2021/08/09 00:57:02;;;;;;;3.50;1.67;;;;;;;14.36;93.04;100851.53;4994195;28;20051;-69
2021/08/09 00:59:29;;;;;;;4.78;1.55;;;;;;;14.27;93.01;100849.53;5011551;28;20054;-68
2021/08/09 01:01:57;;;;;;;5.53;2.00;;;;;;;14.12;93.80;100854.13;5038459;28;20577;-67
2021/08/09 01:04:24;;;;;;;7.07;1.70;;;;;;;14.06;94.39;100844.81;5012543;28;20068;-68
2021/08/09 01:06:51;;;;;;;5.38;1.63;;;;;;;13.94;95.62;100859.75;5028255;28;20046;-68
2021/08/09 01:09:33;;;;;;;3.75;1.70;;;;;;;13.88;96.08;100851.41;5005293;28;20133;-68
2021/08/09 01:12:04;;;;;;;4.10;1.95;;;;;;;13.69;96.66;100867.69;5006249;28;20045;-70
2021/08/09 01:15:05;;;;;;;2.92;1.50;;;;;;;13.67;96.95;100874.88;5010166;28;20046;-68
2021/08/09 01:17:35;;;;;;;4.85;1.75;;;;;;;13.70;96.83;100876.47;5007815;28;20065;-70
2021/08/09 01:20:39;;;;;;;7.93;2.40;;;;;;;13.54;97.58;100879.28;4984497;28;20044;-71
2021/08/09 01:23:25;;;;;;;6.45;1.80;;;;;;;13.61;98.00;100872.66;5001811;28;20132;-70
2021/08/09 01:25:57;;;;;;;2.47;1.70;;;;;;;13.77;97.64;100869.78;4990014;28;20515;-70
2021/08/09 01:28:27;;;;;;;2.13;1.77;;;;;;;13.70;96.31;100865.91;5004359;28;20134;-71
2021/08/09 01:30:55;;;;;;;3.83;1.80;;;;;;;13.49;97.54;100866.38;5022970;23;20049;-66
2021/08/09 01:33:24;;;;;;;4.07;2.13;;;;;;;13.58;97.71;100876.34;5044553;28;20607;-64
2021/08/09 01:35:52;;;;;;;5.90;2.40;;;;;;;13.72;97.00;100877.19;5046360;28;20059;-65
2021/08/09 01:38:21;;;;;;;4.13;2.10;;;;;;;13.60;96.17;100874.44;5041719;28;20057;-66
2021/08/09 01:40:48;;;;;;;3.25;1.92;;;;;;;13.66;96.67;100889.91;5045520;28;20107;-65
2021/08/09 01:43:16;;;;;;;4.28;1.90;;;;;;;13.80;95.24;100891.59;5007756;28;20102;-67
2021/08/09 01:45:43;;;;;;;7.97;2.17;;;;;;;13.73;96.35;100884.19;4993656;28;20049;-66
2021/08/09 01:48:11;;;;;;;7.68;2.20;;;;;;;13.67;96.12;100890.75;5026067;28;20159;-66
2021/08/09 01:50:38;;;;;;;4.75;2.38;;;;;;;13.63;96.24;100892.75;5011257;28;20048;-66
2021/08/09 01:53:06;;;;;;;2.75;1.50;;;;;;;13.69;95.76;100894.16;5017987;28;20073;-67
2021/08/09 01:55:33;;;;;;;5.18;1.88;;;;;;;13.64;95.26;100893.59;5032926;28;20521;-67
2021/08/09 01:58:00;;;;;;;8.60;2.67;;;;;;;13.70;95.08;100910.88;4996779;28;20249;-65
2021/08/09 02:00:29;;;;;;;5.90;1.73;;;;;;;13.64;94.77;100909.47;4990462;28;20084;-65
2021/08/09 02:02:56;;;;;;;2.53;1.80;;;;;;;13.58;95.08;100912.53;5025374;28;20133;-66
2021/08/09 02:05:25;;;;;;;4.53;1.95;;;;;;;13.52;95.54;100905.84;5001329;28;20053;-66
2021/08/09 02:07:54;;;;;;;4.80;1.75;;;;;;;13.50;96.46;100907.75;5002458;28;20049;-67
2021/08/09 02:10:24;;;;;;;5.35;1.67;;;;;;;13.53;95.37;100910.19;5011068;28;20102;-65
2021/08/09 02:13:18;;;;;;;3.95;1.75;;;;;;;13.55;95.79;100910.06;5026423;28;20081;-66
2021/08/09 02:15:57;;;;;;;3.67;1.98;;;;;;;13.39;96.64;100921.69;4989586;28;20140;-66
2021/08/09 02:18:45;;;;;;;6.78;1.98;;;;;;;13.35;97.47;100912.25;5022670;28;20049;-66
2021/08/09 02:21:15;;;;;;;4.15;2.00;;;;;;;13.34;97.30;100913.22;5026618;28;20135;-65
2021/08/09 02:23:52;;;;;;;2.75;1.73;;;;;;;13.40;97.52;100914.59;5020057;28;20097;-65
2021/08/09 02:26:27;;;;;;;4.97;1.70;;;;;;;13.50;95.96;100909.53;5045601;28;20184;-66
2021/08/09 02:28:56;;;;;;;4.05;1.67;;;;;;;13.40;97.21;100911.94;5004663;28;20061;-66
2021/08/09 02:31:24;;;;;;;4.85;1.88;;;;;;;13.37;96.41;100918.31;5018691;28;20729;-68
2021/08/09 02:33:52;;;;;;;2.63;1.80;;;;;;;13.32;98.07;100924.81;5006668;28;20708;-66
2021/08/09 02:36:19;;;;;;;2.70;1.60;;;;;;;13.25;97.56;100932.31;5035983;28;20456;-67
2021/08/09 02:38:47;;;;;;;5.82;2.28;;;;;;;13.26;97.64;100933.16;5033515;28;20049;-66
2021/08/09 02:41:14;;;;;;;4.75;1.80;;;;;;;13.32;96.53;100933.59;5005278;28;20478;-66
2021/08/09 02:43:41;;;;;;;2.65;1.70;;;;;;;13.26;97.66;100935.81;5008093;28;20117;-67
2021/08/09 02:46:08;;;;;;;2.83;1.90;;;;;;;13.22;97.07;100929.00;4995888;28;20045;-66
2021/08/09 02:48:37;;;;;;;6.15;2.30;;;;;;;13.17;98.60;100930.13;5005521;28;20618;-67
2021/08/09 02:51:04;;;;;;;5.45;2.10;;;;;;;13.17;97.15;100938.06;5009588;28;20604;-66
2021/08/09 02:53:32;;;;;;;6.72;2.42;;;;;;;13.14;97.66;100937.41;5002962;28;20051;-66
2021/08/09 02:56:00;;;;;;;4.88;1.90;;;;;;;13.07;98.57;100946.69;5004319;28;20128;-65
2021/08/09 02:58:28;;;;;;;5.03;2.03;;;;;;;13.18;98.27;100942.41;5003388;28;20319;-65
2021/08/09 03:00:56;;;;;;;4.18;1.90;;;;;;;13.26;97.74;100949.88;5018872;28;20081;-68
2021/08/09 03:03:27;;;;;;;5.25;1.80;;;;;;;13.33;97.44;100951.19;5027922;28;20059;-66
2021/08/09 03:05:56;;;;;;;3.15;1.80;;;;;;;13.11;98.32;100946.41;5034364;28;20064;-66
2021/08/09 03:08:25;;;;;;;5.78;1.92;;;;;;;13.17;98.41;100950.44;5038554;28;20053;-68
2021/08/09 03:10:53;;;;;;;4.97;1.85;;;;;;;13.28;96.96;100950.59;5017238;28;20058;-66
2021/08/09 03:13:21;;;;;;;3.78;2.33;;;;;;;13.18;96.81;100947.69;5013116;28;20118;-65
2021/08/09 03:15:52;;;;;;;3.28;1.80;;;;;;;13.11;97.55;100953.50;5013543;28;20412;-64
2021/08/09 03:18:20;;;;;;;5.05;2.15;;;;;;;13.25;96.71;100950.81;5003089;28;20071;-66
2021/08/09 03:20:49;;;;;;;5.57;1.88;;;;;;;13.01;98.13;100950.56;5019229;28;20060;-67
2021/08/09 03:23:16;;;;;;;4.80;2.10;;;;;;;13.03;99.05;100950.47;5039983;28;20045;-67
2021/08/09 03:25:44;;;;;;;4.25;2.22;;;;;;;13.11;98.13;100951.69;5005710;28;20045;-66
2021/08/09 03:28:11;;;;;;;5.10;2.33;;;;;;;12.87;99.31;100955.88;5020766;28;20041;-66
2021/08/09 03:30:38;;;;;;;4.72;2.35;;;;;;;12.68;100.00;100953.56;5025599;28;20076;-67
2021/08/09 03:33:05;;;;;;;13.43;6.13;;;;;;;12.64;100.00;100962.59;5026893;28;20045;-67
2021/08/09 03:35:32;;;;;;;4.10;2.92;;;;;;;12.55;100.00;100966.66;5025780;28;20076;-67
2021/08/09 03:37:59;;;;;;;7.47;2.28;;;;;;;12.78;100.00;100967.03;5004394;28;20057;-66
2021/08/09 03:40:27;;;;;;;3.55;2.20;;;;;;;12.59;100.00;100968.16;5004549;28;20115;-66
2021/08/09 03:42:54;;;;;;;3.05;2.50;;;;;;;12.50;100.00;100967.91;5032557;28;20141;-66
2021/08/09 03:45:21;;;;;;;4.82;2.42;;;;;;;12.44;100.00;100968.28;5029519;28;20056;-66
2021/08/09 03:47:48;;;;;;;2.50;2.30;;;;;;;12.33;100.00;100966.28;5034642;28;20053;-66
2021/08/09 03:50:16;;;;;;;3.78;2.22;;;;;;;12.34;100.00;100968.84;5041733;28;20689;-65
2021/08/09 03:52:47;;;;;;;6.18;2.42;;;;;;;12.72;100.00;100967.41;5023426;28;20128;-65
2021/08/09 03:55:15;;;;;;;4.43;2.20;;;;;;;12.84;100.00;100974.59;5003660;28;20160;-66
2021/08/09 03:57:43;;;;;;;4.18;2.75;;;;;;;12.82;100.00;100972.03;5021589;28;20136;-66
2021/08/09 04:00:12;;;;;;;6.65;2.33;;;;;;;12.89;99.97;100969.84;5017847;28;20041;-66
2021/08/09 04:02:40;;;;;;;3.17;2.05;;;;;;;12.92;99.78;100961.72;5000725;28;20128;-65
2021/08/09 04:05:13;;;;;;;3.67;2.50;;;;;;;12.84;100.00;100964.88;4998698;28;20049;-67
2021/08/09 04:07:40;;;;;;;4.07;2.65;;;;;;;12.89;99.78;100964.56;4997479;28;20045;-65
2021/08/09 04:10:08;;;;;;;5.93;2.65;;;;;;;12.91;99.47;100962.66;5004999;28;20180;-65
2021/08/09 04:12:35;;;;;;;6.22;2.33;;;;;;;13.05;98.91;100957.34;5032594;28;20053;-66
2021/08/09 04:15:02;;;;;;;4.55;2.08;;;;;;;12.86;99.84;100962.97;5033457;28;20129;-66
2021/08/09 04:17:29;;;;;;;4.50;2.83;;;;;;;13.09;98.30;100963.28;5017664;28;20100;-66
2021/08/09 04:19:57;;;;;;;4.13;2.50;;;;;;;13.16;97.39;100968.09;4997736;28;20129;-67
2021/08/09 04:22:24;;;;;;;3.00;2.25;;;;;;;13.25;96.64;100968.50;5032454;28;20184;-66
2021/08/09 04:24:51;;;;;;;5.20;2.80;;;;;;;13.31;96.72;100973.38;5020744;28;20046;-66
2021/08/09 04:27:18;;;;;;;3.33;2.25;;;;;;;13.25;96.15;100968.50;5002229;28;20050;-66
2021/08/09 04:29:46;;;;;;;3.17;2.22;;;;;;;13.32;96.39;100970.63;5025834;28;20124;-66
2021/08/09 04:32:16;;;;;;;4.85;2.42;;;;;;;13.37;95.54;100968.56;5027835;28;20051;-67
2021/08/09 04:34:44;;;;;;;4.80;2.17;;;;;;;13.29;96.47;100976.13;5016239;28;20125;-67
2021/08/09 04:37:11;;;;;;;4.13;2.30;;;;;;;13.48;96.21;100983.72;5035614;28;20108;-68
2021/08/09 04:39:39;;;;;;;5.82;2.50;;;;;;;13.68;94.31;100980.59;5019386;28;20091;-68
2021/08/09 04:42:06;;;;;;;5.15;2.65;;;;;;;14.31;91.02;100975.50;5028893;28;20094;-70
2021/08/09 04:44:40;;;;;;;5.63;2.13;;;;;;;15.94;83.50;100970.81;5031566;28;20053;-70
2021/08/09 04:47:07;;;;;;;2.67;2.08;;;;;;;17.33;74.99;100964.28;5010372;28;20141;-68
2021/08/09 04:49:35;;;;;;;3.25;1.80;;;;;;;18.61;67.81;100960.59;5023589;28;20144;-70
2021/08/09 04:52:03;;;;;;;6.15;2.15;;;;;;;19.26;64.03;100963.72;5026437;28;20482;-71
2021/08/09 04:54:30;;;;;;;3.05;1.50;;;;;;;20.35;60.03;100978.59;5021538;28;20405;-72
2021/08/09 04:56:57;;;;;;;4.22;1.90;;;;;;;21.05;56.57;100963.84;5010762;28;20141;-69
2021/08/09 04:59:24;;;;;;;5.13;1.60;;;;;;;21.87;53.57;100961.97;5012170;28;20051;-70
2021/08/09 05:01:51;;;;;;;5.00;2.28;;;;;;;21.93;52.62;100964.88;5026415;28;20077;-69
2021/08/09 05:04:19;;;;;;;3.45;1.92;;;;;;;22.48;50.96;100969.13;5012182;28;20452;-71
2021/08/09 05:06:48;;;;;;;2.58;1.73;;;;;;;23.18;48.54;100967.06;5029305;28;20623;-69
2021/08/09 05:09:19;;;;;;;3.33;1.85;;;;;;;23.43;47.54;100967.97;5020855;28;20053;-72
2021/08/09 05:11:46;;;;;;;3.60;1.73;;;;;;;24.23;45.86;100973.53;4991897;28;20046;-74
2021/08/09 05:14:14;;;;;;;6.30;1.50;;;;;;;24.56;44.99;100976.19;4997962;28;20049;-69
2021/08/09 05:16:42;;;;;;;5.68;1.80;;;;;;;24.96;43.78;100974.34;5020415;28;20056;-70
2021/08/09 05:19:11;;;;;;;4.18;1.75;;;;;;;24.64;44.23;100983.41;5029923;28;20107;-69
2021/08/09 05:21:38;;;;;;;6.82;2.20;;;;;;;24.91;43.90;100974.88;4992005;28;20049;-70
2021/08/09 05:24:05;;;;;;;4.28;1.80;;;;;;;25.11;42.53;100979.84;4996187;28;20472;-71
2021/08/09 05:26:33;;;;;;;5.03;2.10;;;;;;;25.84;40.98;100978.53;5011477;28;20064;-73
2021/08/09 05:29:00;;;;;;;10.25;2.63;;;;;;;25.98;40.73;100985.81;5021779;28;20606;-69
2021/08/09 05:31:28;;;;;;;2.83;1.60;;;;;;;26.07;40.10;100987.41;5012061;28;20104;-69
2021/08/09 05:33:56;;;;;;;3.72;1.63;;;;;;;26.71;38.72;100993.22;5041756;28;20458;-70
2021/08/09 05:36:24;;;;;;;3.85;1.80;;;;;;;26.34;39.13;100995.94;5024580;28;20616;-71
2021/08/09 05:38:51;;;;;;;5.18;1.88;;;;;;;26.08;39.73;100991.81;5030248;28;20080;-68
2021/08/09 05:41:18;;;;;;;3.13;1.70;;;;;;;26.26;39.59;100986.09;5017519;28;20137;-69
2021/08/09 05:43:45;;;;;;;3.35;1.75;;;;;;;27.04;38.38;100997.38;5015929;28;20045;-69
2021/08/09 05:46:13;;;;;;;4.95;1.80;;;;;;;26.57;38.51;100999.44;5032064;28;20437;-68
2021/08/09 05:48:40;;;;;;;2.78;1.58;;;;;;;27.06;37.99;100993.41;5029159;28;20060;-69
2021/08/09 05:51:07;;;;;;;2.65;1.70;;;;;;;27.56;36.30;100999.88;5035791;28;20056;-70
2021/08/09 05:53:34;;;;;;;4.78;1.60;;;;;;;28.21;35.00;101006.91;5013533;28;20496;-70
2021/08/09 05:56:02;;;;;;;7.45;1.70;;;;;;;27.88;35.90;101005.81;5007900;28;20054;-69
2021/08/09 05:58:29;;;;;;;3.45;1.55;;;;;;;27.16;37.25;101001.28;4997092;28;20057;-70
2021/08/09 06:00:56;;;;;;;4.78;1.63;;;;;;;28.23;35.61;101006.69;5030724;28;20100;-69
2021/08/09 06:03:23;;;;;;;9.30;1.90;;;;;;;28.16;35.28;101005.84;5023502;28;20056;-71
2021/08/09 06:05:54;;;;;;;4.28;1.58;;;;;;;27.79;36.07;101006.97;5011510;28;20140;-69
2021/08/09 06:08:21;;;;;;;4.25;1.60;;;;;;;27.96;36.36;101011.94;5022566;28;20156;-70
2021/08/09 06:10:49;;;;;;;4.00;1.77;;;;;;;28.93;34.25;101016.53;5002444;28;20087;-70
2021/08/09 06:13:16;;;;;;;6.47;1.90;;;;;;;27.62;36.39;101018.00;5015791;28;20136;-70
2021/08/09 06:15:43;;;;;;;4.15;1.80;;;;;;;27.30;37.29;101019.34;4992355;28;20133;-70
2021/08/09 06:18:10;;;;;;;4.22;2.00;;;;;;;28.25;35.48;101024.44;5015372;28;20098;-68
2021/08/09 06:20:38;;;;;;;5.57;1.70;;;;;;;28.44;35.05;101024.81;5003581;28;20128;-69
2021/08/09 06:23:06;;;;;;;4.32;1.55;;;;;;;28.99;34.35;101033.91;5030990;28;20557;-70
2021/08/09 06:25:33;;;;;;;3.47;1.60;;;;;;;28.75;34.71;101032.50;5025573;28;20049;-69
2021/08/09 06:28:00;;;;;;;4.38;1.65;;;;;;;28.79;34.06;101035.66;5019901;28;20747;-70
2021/08/09 06:30:28;;;;;;;7.10;1.40;;;;;;;29.62;32.60;101033.72;5004650;28;20081;-69
2021/08/09 06:32:55;;;;;;;4.70;1.50;;;;;;;29.27;33.49;101034.66;5012110;28;20041;-70
2021/08/09 06:35:22;;;;;;;5.03;1.67;;;;;;;28.74;34.31;101038.97;5036707;28;20041;-70
2021/08/09 06:37:50;;;;;;;5.55;2.08;;;;;;;25.14;40.92;101046.84;5033423;28;20407;-70
2021/08/09 06:40:18;;;;;;;2.70;1.33;;;;;;;25.08;42.00;101047.53;5037454;28;20048;-69
2021/08/09 06:42:45;;;;;;;5.93;1.73;;;;;;;24.62;42.90;101047.31;5011404;28;20496;-70
2021/08/09 06:45:12;;;;;;;2.80;1.55;;;;;;;23.76;45.18;101045.97;5030304;28;20096;-69
2021/08/09 06:47:39;;;;;;;4.85;1.88;;;;;;;23.42;46.20;101040.69;4992437;28;20472;-69
2021/08/09 06:50:07;;;;;;;4.15;1.85;;;;;;;23.35;47.07;101042.34;5014354;28;20098;-69
2021/08/09 06:52:34;;;;;;;3.58;1.42;;;;;;;24.60;44.07;101038.59;5014072;28;20077;-69
2021/08/09 06:55:01;;;;;;;4.72;1.63;;;;;;;24.44;43.82;101034.91;4998554;28;20044;-68
2021/08/09 06:57:28;;;;;;;5.97;2.33;;;;;;;23.81;45.58;101029.34;5008478;28;20571;-69
2021/08/09 06:59:56;;;;;;;6.18;1.63;;;;;;;22.66;48.34;101036.13;5004603;28;20057;-68
2021/08/09 07:02:24;;;;;;;3.42;1.50;;;;;;;22.00;50.82;101040.16;4992793;28;20156;-69
2021/08/09 07:04:51;;;;;;;7.72;2.00;;;;;;;21.63;52.13;101046.50;5022719;28;20046;-68
2021/08/09 07:07:19;;;;;;;4.57;1.92;;;;;;;21.48;52.60;101042.69;5027761;28;20115;-69
2021/08/09 07:09:46;;;;;;;2.65;1.55;;;;;;;21.71;52.15;101038.56;5004194;28;20130;-69
2021/08/09 07:12:13;;;;;;;5.53;1.63;;;;;;;21.66;52.62;101043.53;5005808;28;20114;-69
2021/08/09 07:14:41;;;;;;;7.20;1.60;;;;;;;21.53;52.56;101048.41;5005935;28;20084;-69
2021/08/09 07:17:08;;;;;;;3.75;1.90;;;;;;;21.54;52.75;101043.91;4992035;28;20412;-69
2021/08/09 07:19:37;;;;;;;3.60;1.45;;;;;;;21.26;54.24;101045.75;5027586;28;20144;-70
2021/08/09 07:22:04;;;;;;;8.10;2.25;;;;;;;21.83;52.57;101043.66;5017981;28;20110;-69
2021/08/09 07:24:31;;;;;;;3.65;2.05;;;;;;;21.86;53.34;101040.69;4998230;28;20141;-69
2021/08/09 07:26:59;;;;;;;12.48;2.75;;;;;;;21.56;54.40;101042.72;5011949;28;20056;-70
2021/08/09 07:29:28;;;;;;;7.30;2.50;;;;;;;21.63;53.02;101043.81;4999342;28;20136;-69
2021/08/09 07:31:55;;;;;;;7.93;1.85;;;;;;;21.81;53.21;101040.31;5041027;23;20069;-81
2021/08/09 07:34:22;;;;;;;4.80;2.08;;;;;;;22.13;51.85;101040.63;5039256;28;20154;-82
2021/08/09 07:36:50;;;;;;;3.53;1.38;;;;;;;22.73;50.14;101035.31;5042311;28;21528;-81
2021/08/09 07:39:18;;;;;;;6.90;2.08;;;;;;;22.46;51.24;101040.84;5040429;28;20052;-82
2021/08/09 07:41:48;;;;;;;8.32;1.73;;;;;;;22.68;50.29;101034.97;5035177;28;20045;-81
2021/08/09 07:44:16;;;;;;;6.88;2.17;;;;;;;22.80;50.53;101034.69;5046589;28;20076;-81
2021/08/09 07:46:43;;;;;;;5.15;1.95;;;;;;;23.72;47.75;101029.34;5041211;28;20156;-81
2021/08/09 07:49:10;;;;;;;6.47;1.70;;;;;;;24.28;46.90;101034.06;5048174;28;20053;-82
2021/08/09 07:51:38;;;;;;;3.85;1.73;;;;;;;24.18;45.77;101032.41;5051906;28;20059;-80
2021/08/09 07:54:05;;;;;;;5.20;1.67;;;;;;;23.80;47.15;101028.50;5052547;28;20113;-81
2021/08/09 07:56:33;;;;;;;6.03;1.90;;;;;;;23.18;49.23;101031.53;5053558;28;20048;-81
2021/08/09 07:59:01;;;;;;;8.80;2.63;;;;;;;22.61;50.70;101025.88;5032836;28;20041;-81
2021/08/09 08:01:29;;;;;;;3.22;1.48;;;;;;;22.12;51.66;101030.06;5049489;28;20049;-81
2021/08/09 08:03:56;;;;;;;3.45;1.85;;;;;;;21.60;53.23;101030.72;5032224;28;20092;-82
2021/08/09 08:06:24;;;;;;;5.75;1.67;;;;;;;21.26;54.06;101040.38;5049340;28;20425;-81
2021/08/09 08:08:51;;;;;;;5.25;1.55;;;;;;;21.41;53.93;101033.53;5028387;28;20045;-83
2021/08/09 08:11:36;;;;;;;3.90;1.80;;;;;;;21.17;54.72;101045.63;5023925;28;20045;-82
2021/08/09 08:14:04;;;;;;;5.28;1.63;;;;;;;21.29;54.37;101042.75;5048211;28;20151;-81
2021/08/09 08:16:32;;;;;;;4.50;1.92;;;;;;;20.98;54.76;101041.22;5013582;28;20083;-82
2021/08/09 08:18:59;;;;;;;3.15;1.40;;;;;;;20.85;56.02;101048.75;5050645;28;20076;-83
2021/08/09 08:21:31;;;;;;;5.15;2.17;;;;;;;20.32;57.62;101043.06;5015599;28;20208;-82
2021/08/09 08:28:11;;;;;;;3.60;1.85;;;;;;;19.70;59.58;101048.72;5028858;23;20049;-78
2021/08/09 08:30:39;;;;;;;4.93;1.70;;;;;;;20.05;59.25;101054.50;4988965;28;20069;-78
2021/08/09 08:33:07;;;;;;;8.60;1.83;;;;;;;20.17;58.65;101054.22;4959663;28;20042;-78
2021/08/09 08:35:34;;;;;;;6.93;1.67;;;;;;;20.36;58.53;101050.66;4998913;28;20129;-77
2021/08/09 08:38:02;;;;;;;4.80;2.05;;;;;;;20.03;58.86;101059.97;4998825;28;20065;-78
2021/08/09 08:40:29;;;;;;;4.00;2.22;;;;;;;20.13;58.96;101066.19;4986418;28;20109;-78
2021/08/09 08:42:57;;;;;;;9.40;2.28;;;;;;;20.33;58.65;101072.34;4996502;23;20072;-82
2021/08/09 08:45:26;;;;;;;4.60;1.85;;;;;;;20.33;59.01;101067.00;4999937;28;20065;-82
2021/08/09 08:47:55;;;;;;;5.82;2.00;;;;;;;20.50;58.55;101075.31;5020570;28;20045;-83
2021/08/09 08:50:23;;;;;;;4.20;2.03;;;;;;;20.74;57.97;101079.19;4996902;28;20041;-84
2021/08/09 08:52:52;;;;;;;4.13;1.60;;;;;;;20.78;57.57;101076.22;4991831;28;20076;-83
2021/08/09 08:55:20;;;;;;;4.60;1.75;;;;;;;20.84;58.00;101078.31;4999948;28;20085;-83
2021/08/09 08:57:48;;;;;;;8.65;2.20;;;;;;;21.03;57.01;101074.72;4997933;28;20128;-82
2021/08/09 09:00:16;;;;;;;5.15;2.05;;;;;;;21.08;56.84;101083.16;4978649;28;20057;-83
2021/08/09 09:02:44;;;;;;;5.40;1.95;;;;;;;21.19;56.70;101083.78;5009279;28;20124;-82
2021/08/09 09:05:16;;;;;;;6.45;2.75;;;;;;;21.04;56.69;101082.59;4979779;28;20045;-82
2021/08/09 09:07:46;;;;;;;6.03;2.08;;;;;;;21.14;56.06;101083.41;5030509;28;20215;-83
2021/08/09 09:10:29;;;;;;;3.70;1.85;;;;;;;21.19;55.85;101081.13;4985029;28;20041;-81
2021/08/09 09:13:06;;;;;;;6.03;1.92;;;;;;;20.83;56.38;101079.28;5010573;28;20041;-84
2021/08/09 09:15:56;;;;;;;3.60;1.70;;;;;;;21.26;55.39;101081.38;5030915;28;20089;-83
2021/08/09 09:18:26;;;;;;;4.72;1.73;;;;;;;21.68;54.52;101078.22;5016322;28;20545;-83
2021/08/09 09:20:54;;;;;;;3.60;2.10;;;;;;;21.94;54.31;101072.94;5018145;28;20109;-81
2021/08/09 09:23:23;;;;;;;4.82;2.05;;;;;;;21.96;53.74;101078.97;4982099;28;20246;-84
2021/08/09 09:25:52;;;;;;;8.40;1.73;;;;;;;22.53;52.34;101079.50;5013663;28;20045;-83
2021/08/09 09:28:25;;;;;;;5.13;2.30;;;;;;;22.31;51.80;101077.31;5003027;28;20045;-83
2021/08/09 09:30:57;;;;;;;7.65;2.28;;;;;;;21.95;52.89;101088.03;4980487;28;20132;-83
2021/08/09 09:33:24;;;;;;;6.18;2.55;;;;;;;21.89;53.89;101091.31;5009443;28;20065;-81
2021/08/09 09:35:52;;;;;;;4.30;1.70;;;;;;;21.76;53.34;101090.84;4993854;28;20053;-82
2021/08/09 09:38:19;;;;;;;6.10;2.10;;;;;;;21.51;54.61;101095.94;5002774;28;20522;-82
2021/08/09 09:40:46;;;;;;;8.85;2.28;;;;;;;21.63;54.05;101094.72;5008161;28;20428;-84
2021/08/09 09:43:16;;;;;;;3.88;1.63;;;;;;;22.11;53.08;101098.03;5009282;28;20041;-82
2021/08/09 09:45:52;;;;;;;4.90;2.10;;;;;;;22.57;51.85;101106.84;4993548;28;20042;-81
2021/08/09 09:48:33;;;;;;;5.30;2.03;;;;;;;22.90;51.05;101097.19;4993440;28;20095;-83
2021/08/09 09:51:15;;;;;;;8.65;4.68;;;;;;;23.86;48.60;101092.38;5025834;28;20060;-83
2021/08/09 09:53:43;;;;;;;19.83;11.85;;;;;;;24.35;46.06;101091.56;5026066;28;20060;-82
2021/08/09 09:56:11;;;;;;;11.43;2.80;;;;;;;24.24;46.96;101082.00;5028715;28;20045;-82
2021/08/09 09:58:39;;;;;;;12.55;2.85;;;;;;;23.81;48.38;101080.44;4997641;28;20072;-81
2021/08/09 10:01:07;;;;;;;19.50;11.95;;;;;;;23.28;48.49;101078.91;5010803;28;20511;-84
2021/08/09 10:03:36;;;;;;;7.25;3.10;;;;;;;23.69;48.23;101061.94;5007005;28;20041;-82
2021/08/09 10:06:06;;;;;;;12.52;6.53;;;;;;;24.25;46.82;101071.06;5014499;28;20025;-82
2021/08/09 10:08:39;;;;;;;8.25;2.53;;;;;;;24.32;45.27;101065.03;5009778;28;20068;-82
2021/08/09 10:11:08;;;;;;;6.25;3.15;;;;;;;24.47;45.48;101072.25;5028592;28;20411;-83
2021/08/09 10:13:37;;;;;;;5.78;2.03;;;;;;;23.97;45.97;101067.03;4999554;28;20041;-82
2021/08/09 10:16:07;;;;;;;9.70;6.68;;;;;;;24.37;44.65;101074.28;4990117;28;20125;-83
2021/08/09 10:18:37;;;;;;;6.18;1.80;;;;;;;24.47;45.01;101079.50;5018250;28;20041;-82
2021/08/09 10:21:06;;;;;;;9.15;2.35;;;;;;;24.63;45.25;101079.47;5018959;28;20321;-83
2021/08/09 10:23:41;;;;;;;10.85;5.05;;;;;;;24.84;44.38;101088.84;5027634;28;20121;-82
2021/08/09 10:26:34;;;;;;;6.57;2.33;;;;;;;24.91;42.49;101087.16;5043719;28;20044;-83
2021/08/09 10:29:03;;;;;;;7.60;2.22;;;;;;;25.02;42.21;101074.13;5015684;28;20143;-84
2021/08/09 10:31:31;;;;;;;6.97;2.88;;;;;;;25.24;42.65;101080.66;5002608;28;20123;-82
2021/08/09 10:33:59;;;;;;;7.40;2.28;;;;;;;24.67;42.33;101078.09;5030174;28;20096;-84
2021/08/09 10:36:26;;;;;;;6.32;2.40;;;;;;;23.89;44.07;101069.69;5038081;28;20046;-82
2021/08/09 10:39:00;;;;;;;5.50;2.03;;;;;;;23.77;44.29;101069.16;5009601;28;20171;-84
2021/08/09 10:41:33;;;;;;;4.07;1.63;;;;;;;23.99;44.01;101059.63;4976923;28;20037;-81
2021/08/09 10:44:07;;;;;;;7.30;3.15;;;;;;;24.10;43.11;101070.06;5012578;28;20183;-83
2021/08/09 10:46:36;;;;;;;5.65;2.78;;;;;;;23.89;44.45;101061.63;5009681;28;20497;-83
2021/08/09 10:49:04;;;;;;;3.85;1.95;;;;;;;24.02;43.76;101063.84;5010663;28;20071;-82
2021/08/09 10:51:52;;;;;;;6.70;2.85;;;;;;;24.11;43.75;101071.72;5004086;28;20050;-82
2021/08/09 10:54:26;;;;;;;7.45;2.00;;;;;;;24.54;43.53;101074.25;5027978;28;20332;-83
2021/08/09 10:56:55;;;;;;;5.73;2.37;;;;;;;24.38;43.76;101075.97;5013908;28;20056;-82
2021/08/09 10:59:38;;;;;;;8.68;2.72;;;;;;;24.37;43.07;101068.06;4977601;28;20224;-80
2021/08/09 11:02:24;;;;;;;6.63;2.20;;;;;;;23.63;45.01;101062.56;5014655;28;20069;-81
2021/08/09 11:05:19;;;;;;;9.70;2.10;;;;;;;23.98;44.31;101058.78;5004115;28;20053;-81
2021/08/09 11:08:15;;;;;;;4.13;1.80;;;;;;;23.86;44.96;101057.41;5010225;28;20117;-83
2021/08/09 11:10:58;;;;;;;2.58;1.73;;;;;;;24.29;43.38;101059.97;5010256;28;20079;-80
2021/08/09 11:13:27;;;;;;;5.10;1.98;;;;;;;24.69;41.78;101068.00;5037820;28;20090;-81
2021/08/09 11:16:03;;;;;;;3.83;1.52;;;;;;;24.79;42.44;101059.75;4994795;28;20037;-81
2021/08/09 11:18:35;;;;;;;4.05;1.83;;;;;;;25.15;41.45;101062.00;5001567;28;20045;-83
2021/08/09 11:21:10;;;;;;;8.00;2.33;;;;;;;25.62;40.22;101064.63;5019201;28;20386;-82
2021/08/09 11:23:39;;;;;;;2.78;1.20;;;;;;;25.80;40.12;101061.66;4988126;28;20078;-81
2021/08/09 11:26:29;;;;;;;5.07;1.52;;;;;;;25.20;40.42;101067.69;5015629;28;20590;-81
2021/08/09 11:29:07;;;;;;;3.38;1.13;;;;;;;25.11;40.32;101066.91;5028880;28;20081;-83
2021/08/09 11:31:48;;;;;;;4.32;1.30;;;;;;;25.23;38.98;101061.97;5004364;28;20400;-81
2021/08/09 11:34:16;;;;;;;3.47;1.30;;;;;;;25.38;38.87;101059.38;4998065;28;20103;-83
2021/08/09 11:36:43;;;;;;;5.63;1.40;;;;;;;25.23;39.27;101057.41;5035362;28;20040;-82
2021/08/09 11:39:13;;;;;;;3.40;1.40;;;;;;;25.04;39.63;101052.44;5014122;28;20120;-81